EDV5403 KCSG-KATL
Flight info
| Callsign | EDV5403 |
|---|---|
| Flight time | 0h 25m |
| Altitude | 17000 |
| Route | GRANT T224 SINCA/N0388F160 JJEDI JJEDI3 |
| Aircraft | CRJ9/M-SDFGIRWY/S |
Departure
| Time | 2026-05-06 12:25 |
|---|---|
| Airport | Columbus Airport (KCSG) |
Arrival
| Time | 2026-05-06 12:51 |
|---|---|
| Airport | Hartsfield Jackson Atlanta International Airport (KATL) |
| Time | Latitude | Longitude | Altitude | Speed | Heading |
|---|---|---|---|---|---|
| 2026-05-06 12:09 | 32.51810 | -84.93870 | 405 ft | 0 kts | 324° |
| 2026-05-06 12:13 | 32.51809 | -84.93869 | 405 ft | 3 kts | 324° |
| 2026-05-06 12:14 | 32.51790 | -84.93854 | 405 ft | 2 kts | 334° |
| 2026-05-06 12:14 | 32.51779 | -84.93851 | 405 ft | 2 kts | 13° |
| 2026-05-06 12:14 | 32.51770 | -84.93857 | 401 ft | 2 kts | 44° |
| 2026-05-06 12:14 | 32.51763 | -84.93867 | 403 ft | 2 kts | 51° |
| 2026-05-06 12:15 | 32.51756 | -84.93877 | 401 ft | 0 kts | 53° |
| 2026-05-06 12:21 | 32.51757 | -84.93876 | 401 ft | 0 kts | 53° |
| 2026-05-06 12:21 | 32.51764 | -84.93864 | 404 ft | 5 kts | 53° |
| 2026-05-06 12:22 | 32.51786 | -84.93826 | 405 ft | 6 kts | 66° |
| 2026-05-06 12:22 | 32.51779 | -84.93784 | 405 ft | 5 kts | 137° |
| 2026-05-06 12:22 | 32.51754 | -84.93730 | 404 ft | 11 kts | 72° |
| 2026-05-06 12:22 | 32.51804 | -84.93644 | 403 ft | 14 kts | 54° |
| 2026-05-06 12:23 | 32.51872 | -84.93534 | 403 ft | 18 kts | 53° |
| 2026-05-06 12:23 | 32.51953 | -84.93402 | 401 ft | 21 kts | 53° |
| 2026-05-06 12:23 | 32.52043 | -84.93257 | 403 ft | 23 kts | 53° |
| 2026-05-06 12:23 | 32.52140 | -84.93101 | 401 ft | 24 kts | 53° |
| 2026-05-06 12:24 | 32.52236 | -84.92945 | 403 ft | 21 kts | 53° |
| 2026-05-06 12:24 | 32.52302 | -84.92837 | 403 ft | 15 kts | 59° |
| 2026-05-06 12:24 | 32.52281 | -84.92747 | 404 ft | 13 kts | 142° |
| 2026-05-06 12:24 | 32.52223 | -84.92747 | 404 ft | 9 kts | 230° |
| 2026-05-06 12:25 | 32.52109 | -84.92931 | 404 ft | 62 kts | 233° |
| 2026-05-06 12:25 | 32.51693 | -84.93603 | 404 ft | 137 kts | 234° |
| 2026-05-06 12:25 | 32.51019 | -84.94703 | 763 ft | 168 kts | 234° |
| 2026-05-06 12:25 | 32.50313 | -84.95866 | 1547 ft | 178 kts | 233° |
| 2026-05-06 12:26 | 32.49513 | -84.97155 | 1970 ft | 207 kts | 233° |
| 2026-05-06 12:26 | 32.48597 | -84.98610 | 2549 ft | 230 kts | 233° |
| 2026-05-06 12:26 | 32.47900 | -85.00348 | 3332 ft | 242 kts | 263° |
| 2026-05-06 12:26 | 32.48277 | -85.02315 | 4252 ft | 257 kts | 300° |
| 2026-05-06 12:27 | 32.49596 | -85.03785 | 5255 ft | 266 kts | 321° |
| 2026-05-06 12:27 | 32.51222 | -85.04800 | 6271 ft | 277 kts | 340° |
| 2026-05-06 12:27 | 32.53184 | -85.04691 | 7209 ft | 295 kts | 15° |
| 2026-05-06 12:27 | 32.54929 | -85.03326 | 8056 ft | 312 kts | 45° |
| 2026-05-06 12:28 | 32.56242 | -85.01241 | 8897 ft | 318 kts | 54° |
| 2026-05-06 12:28 | 32.57468 | -84.99058 | 9766 ft | 325 kts | 58° |
| 2026-05-06 12:28 | 32.58589 | -84.96666 | 10284 ft | 344 kts | 62° |
| 2026-05-06 12:28 | 32.59712 | -84.94018 | 10428 ft | 374 kts | 63° |
| 2026-05-06 12:29 | 32.60881 | -84.91130 | 10591 ft | 402 kts | 64° |
| 2026-05-06 12:29 | 32.62089 | -84.88050 | 10752 ft | 418 kts | 65° |
| 2026-05-06 12:29 | 32.63268 | -84.84927 | 10895 ft | 423 kts | 65° |
| 2026-05-06 12:29 | 32.64501 | -84.81735 | 11032 ft | 429 kts | 64° |
| 2026-05-06 12:30 | 32.65821 | -84.78555 | 11027 ft | 430 kts | 62° |
| 2026-05-06 12:30 | 32.67205 | -84.75405 | 11025 ft | 431 kts | 61° |
| 2026-05-06 12:30 | 32.68578 | -84.72236 | 11068 ft | 431 kts | 62° |
| 2026-05-06 12:30 | 32.69918 | -84.69073 | 11055 ft | 429 kts | 63° |
| 2026-05-06 12:31 | 32.71234 | -84.65908 | 11021 ft | 426 kts | 63° |
| 2026-05-06 12:31 | 32.72526 | -84.62753 | 11003 ft | 423 kts | 63° |
| 2026-05-06 12:31 | 32.73778 | -84.59650 | 11015 ft | 421 kts | 63° |
| 2026-05-06 12:31 | 32.75057 | -84.56529 | 11002 ft | 420 kts | 62° |
| 2026-05-06 12:32 | 32.76352 | -84.53427 | 10992 ft | 418 kts | 63° |
| 2026-05-06 12:32 | 32.77630 | -84.50351 | 11008 ft | 417 kts | 62° |
| 2026-05-06 12:32 | 32.78910 | -84.47259 | 10992 ft | 417 kts | 63° |
| 2026-05-06 12:32 | 32.80192 | -84.44173 | 11010 ft | 416 kts | 63° |
| 2026-05-06 12:33 | 32.81464 | -84.41080 | 11040 ft | 417 kts | 63° |
| 2026-05-06 12:33 | 32.82749 | -84.37991 | 11030 ft | 417 kts | 63° |
| 2026-05-06 12:33 | 32.83925 | -84.34886 | 11055 ft | 417 kts | 66° |
| 2026-05-06 12:33 | 32.84985 | -84.31678 | 11045 ft | 417 kts | 69° |
| 2026-05-06 12:34 | 32.85992 | -84.28447 | 11040 ft | 416 kts | 69° |
| 2026-05-06 12:34 | 32.86993 | -84.25226 | 11043 ft | 415 kts | 68° |
| 2026-05-06 12:34 | 32.88037 | -84.22032 | 11040 ft | 414 kts | 67° |
| 2026-05-06 12:34 | 32.89087 | -84.18843 | 11040 ft | 413 kts | 68° |
| 2026-05-06 12:35 | 32.90137 | -84.15662 | 11034 ft | 413 kts | 68° |
| 2026-05-06 12:35 | 32.91177 | -84.12485 | 11022 ft | 412 kts | 68° |
| 2026-05-06 12:35 | 32.92219 | -84.09311 | 11020 ft | 412 kts | 68° |
| 2026-05-06 12:35 | 32.93254 | -84.06138 | 11016 ft | 411 kts | 68° |
| 2026-05-06 12:36 | 32.94281 | -84.03008 | 11002 ft | 411 kts | 66° |
| 2026-05-06 12:36 | 32.95780 | -84.00154 | 10983 ft | 405 kts | 43° |
| 2026-05-06 12:36 | 32.97993 | -83.98164 | 10997 ft | 397 kts | 26° |
| 2026-05-06 12:36 | 33.00400 | -83.96561 | 11009 ft | 396 kts | 25° |
| 2026-05-06 12:37 | 33.02791 | -83.94942 | 11016 ft | 397 kts | 26° |
| 2026-05-06 12:37 | 33.05152 | -83.93204 | 10984 ft | 399 kts | 28° |
| 2026-05-06 12:37 | 33.07497 | -83.91371 | 10774 ft | 407 kts | 30° |
| 2026-05-06 12:37 | 33.09846 | -83.89533 | 10563 ft | 412 kts | 29° |
| 2026-05-06 12:38 | 33.12256 | -83.87656 | 10351 ft | 416 kts | 29° |
| 2026-05-06 12:38 | 33.14700 | -83.85811 | 10158 ft | 408 kts | 24° |
| 2026-05-06 12:38 | 33.17265 | -83.84879 | 10049 ft | 367 kts | 358° |
| 2026-05-06 12:38 | 33.19638 | -83.85259 | 10006 ft | 327 kts | 332° |
| 2026-05-06 12:39 | 33.21607 | -83.86371 | 9999 ft | 302 kts | 324° |
| 2026-05-06 12:39 | 33.23381 | -83.87616 | 9661 ft | 293 kts | 320° |
| 2026-05-06 12:39 | 33.24961 | -83.89109 | 9193 ft | 287 kts | 311° |
| 2026-05-06 12:39 | 33.26373 | -83.90769 | 8742 ft | 284 kts | 309° |
| 2026-05-06 12:40 | 33.27737 | -83.92454 | 8334 ft | 281 kts | 309° |
| 2026-05-06 12:40 | 33.29060 | -83.94087 | 8149 ft | 271 kts | 309° |
| 2026-05-06 12:40 | 33.30353 | -83.95687 | 8083 ft | 265 kts | 309° |
| 2026-05-06 12:40 | 33.31658 | -83.97306 | 8071 ft | 274 kts | 309° |
| 2026-05-06 12:41 | 33.32998 | -83.98952 | 8126 ft | 277 kts | 310° |
| 2026-05-06 12:41 | 33.34348 | -84.00579 | 8157 ft | 272 kts | 310° |
| 2026-05-06 12:41 | 33.35727 | -84.02122 | 7872 ft | 275 kts | 321° |
| 2026-05-06 12:41 | 33.37551 | -84.02910 | 7605 ft | 285 kts | 345° |
| 2026-05-06 12:42 | 33.39505 | -84.03136 | 7365 ft | 287 kts | 353° |
| 2026-05-06 12:42 | 33.41500 | -84.03167 | 7140 ft | 286 kts | 355° |
| 2026-05-06 12:42 | 33.43517 | -84.03148 | 6886 ft | 285 kts | 356° |
| 2026-05-06 12:42 | 33.45495 | -84.03145 | 6644 ft | 282 kts | 353° |
| 2026-05-06 12:43 | 33.47336 | -84.03751 | 6343 ft | 273 kts | 329° |
| 2026-05-06 12:43 | 33.49019 | -84.04790 | 6086 ft | 271 kts | 328° |
| 2026-05-06 12:43 | 33.50669 | -84.05863 | 5831 ft | 269 kts | 327° |
| 2026-05-06 12:43 | 33.52301 | -84.06965 | 5494 ft | 270 kts | 326° |
| 2026-05-06 12:44 | 33.53924 | -84.08088 | 5224 ft | 269 kts | 327° |
| 2026-05-06 12:44 | 33.55560 | -84.09217 | 4999 ft | 265 kts | 327° |
| 2026-05-06 12:44 | 33.57153 | -84.10269 | 4727 ft | 265 kts | 328° |
| 2026-05-06 12:44 | 33.58784 | -84.11291 | 4417 ft | 265 kts | 329° |
| 2026-05-06 12:45 | 33.60440 | -84.12300 | 4167 ft | 261 kts | 329° |
| 2026-05-06 12:45 | 33.62050 | -84.13332 | 4079 ft | 262 kts | 321° |
| 2026-05-06 12:45 | 33.63338 | -84.16929 | 3987 ft | 226 kts | 269° |
| 2026-05-06 12:46 | 33.63316 | -84.18750 | 3989 ft | 211 kts | 266° |
| 2026-05-06 12:46 | 33.63243 | -84.20480 | 3966 ft | 208 kts | 265° |
| 2026-05-06 12:46 | 33.63180 | -84.22168 | 3966 ft | 196 kts | 266° |
| 2026-05-06 12:46 | 33.63151 | -84.23746 | 3917 ft | 184 kts | 268° |
| 2026-05-06 12:47 | 33.63163 | -84.25284 | 3625 ft | 183 kts | 268° |
| 2026-05-06 12:47 | 33.63172 | -84.26785 | 3403 ft | 176 kts | 267° |
| 2026-05-06 12:47 | 33.63178 | -84.28203 | 3238 ft | 168 kts | 267° |
| 2026-05-06 12:47 | 33.63181 | -84.29597 | 2977 ft | 166 kts | 266° |
| 2026-05-06 12:48 | 33.63180 | -84.30961 | 2746 ft | 161 kts | 266° |
| 2026-05-06 12:48 | 33.63185 | -84.32286 | 2552 ft | 155 kts | 266° |
| 2026-05-06 12:48 | 33.63190 | -84.33483 | 2375 ft | 137 kts | 265° |
| 2026-05-06 12:48 | 33.63188 | -84.34570 | 2201 ft | 124 kts | 264° |
| 2026-05-06 12:49 | 33.63193 | -84.35572 | 2040 ft | 119 kts | 264° |
| 2026-05-06 12:49 | 33.63185 | -84.36587 | 1887 ft | 125 kts | 264° |
| 2026-05-06 12:49 | 33.63172 | -84.37636 | 1771 ft | 127 kts | 265° |
| 2026-05-06 12:49 | 33.63186 | -84.38730 | 1614 ft | 135 kts | 266° |
| 2026-05-06 12:50 | 33.63178 | -84.39879 | 1416 ft | 140 kts | 268° |
| 2026-05-06 12:50 | 33.63180 | -84.41045 | 1209 ft | 139 kts | 268° |
| 2026-05-06 12:50 | 33.63184 | -84.42183 | 1040 ft | 128 kts | 268° |
| 2026-05-06 12:50 | 33.63182 | -84.43054 | 1036 ft | 80 kts | 270° |
| 2026-05-06 12:51 | 33.63199 | -84.43533 | 1035 ft | 42 kts | 285° |
| 2026-05-06 12:51 | 33.63281 | -84.43728 | 1034 ft | 15 kts | 327° |
| 2026-05-06 12:51 | 33.63359 | -84.43684 | 1033 ft | 16 kts | 77° |
| 2026-05-06 12:51 | 33.63362 | -84.43523 | 1034 ft | 23 kts | 90° |
| 2026-05-06 12:52 | 33.63363 | -84.43304 | 1034 ft | 29 kts | 91° |
| 2026-05-06 12:52 | 33.63362 | -84.43056 | 1034 ft | 30 kts | 90° |
| 2026-05-06 12:52 | 33.63376 | -84.42876 | 1034 ft | 18 kts | 51° |
| 2026-05-06 12:52 | 33.63493 | -84.42848 | 1034 ft | 18 kts | 359° |
| 2026-05-06 12:53 | 33.63593 | -84.42794 | 1033 ft | 16 kts | 45° |
| 2026-05-06 12:53 | 33.63693 | -84.42793 | 1034 ft | 17 kts | 339° |
| 2026-05-06 12:53 | 33.63807 | -84.42809 | 1034 ft | 17 kts | 0° |
| 2026-05-06 12:53 | 33.63924 | -84.42809 | 1034 ft | 11 kts | 0° |
| 2026-05-06 12:54 | 33.64002 | -84.42809 | 1034 ft | 10 kts | 0° |
| 2026-05-06 12:54 | 33.64074 | -84.42809 | 1034 ft | 11 kts | 0° |
| 2026-05-06 12:54 | 33.64151 | -84.42809 | 1034 ft | 10 kts | 360° |
| 2026-05-06 12:54 | 33.64190 | -84.42816 | 1034 ft | 5 kts | 317° |
| 2026-05-06 12:55 | 33.64192 | -84.42848 | 1034 ft | 5 kts | 263° |
| 2026-05-06 12:55 | 33.64192 | -84.42863 | 1034 ft | 3 kts | 269° |
| 2026-05-06 12:55 | 33.64192 | -84.42881 | 1034 ft | 0 kts | 269° |